createdAt,value
2019-01-09T00:00:13.581Z,18.69
2019-01-09T00:01:22.642Z,18.7
2019-01-09T00:02:31.751Z,18.65
2019-01-09T00:03:40.590Z,18.65
2019-01-09T00:04:49.763Z,18.66
2019-01-09T00:05:58.609Z,18.69
2019-01-09T00:07:07.559Z,18.69
2019-01-09T00:08:16.664Z,18.57
2019-01-09T00:09:25.759Z,18.67
2019-01-09T00:10:34.829Z,18.66
2019-01-09T00:11:43.737Z,18.65
2019-01-09T00:12:52.855Z,18.67
2019-01-09T00:14:02.234Z,18.5
2019-01-09T00:15:11.056Z,18.65
2019-01-09T00:16:20.168Z,18.7
2019-01-09T00:17:29.024Z,18.62
2019-01-09T00:18:38.127Z,18.63
2019-01-09T00:19:47.236Z,18.67
2019-01-09T00:20:56.302Z,18.55
2019-01-09T00:22:05.171Z,18.63
2019-01-09T00:23:13.991Z,18.67
2019-01-09T00:24:23.324Z,18.62
2019-01-09T00:25:32.692Z,18.67
2019-01-09T00:26:42.079Z,18.57
2019-01-09T00:27:51.233Z,18.58
2019-01-09T00:29:00.348Z,18.62
2019-01-09T00:30:09.698Z,18.57
2019-01-09T00:31:18.558Z,18.63
2019-01-09T00:32:27.635Z,18.63
2019-01-09T00:33:36.556Z,18.63
2019-01-09T00:34:45.372Z,18.55
2019-01-09T00:35:54.205Z,18.67
2019-01-09T00:37:03.018Z,18.67
2019-01-09T00:38:11.843Z,18.65
2019-01-09T00:39:21.184Z,18.63
2019-01-09T00:40:29.993Z,18.6
2019-01-09T00:41:38.826Z,18.57
2019-01-09T00:42:47.725Z,18.66
2019-01-09T00:43:56.545Z,18.57
2019-01-09T00:45:06.202Z,18.54
2019-01-09T00:46:15.005Z,18.6
2019-01-09T00:47:23.839Z,18.6
2019-01-09T00:48:32.666Z,18.55
2019-01-09T00:49:41.486Z,18.66
2019-01-09T00:50:50.351Z,18.6
2019-01-09T00:51:59.193Z,18.55
2019-01-09T00:53:08.553Z,18.55
2019-01-09T00:54:17.616Z,18.54
2019-01-09T00:55:26.721Z,18.54
2019-01-09T00:56:35.656Z,18.62
2019-01-09T00:57:44.719Z,18.57
2019-01-09T00:58:53.539Z,18.52
2019-01-09T01:00:02.636Z,18.5
2019-01-09T01:01:11.715Z,18.52
2019-01-09T01:02:20.907Z,18.55
2019-01-09T01:03:29.999Z,18.58
2019-01-09T01:04:38.818Z,18.52
2019-01-09T01:05:50.659Z,18.55
2019-01-09T01:06:59.462Z,18.5
2019-01-09T01:08:08.377Z,18.55
2019-01-09T01:09:17.483Z,18.55
2019-01-09T01:10:26.564Z,18.5
2019-01-09T01:11:35.904Z,18.57
2019-01-09T01:12:44.972Z,18.55
2019-01-09T01:13:53.898Z,18.51
2019-01-09T01:15:02.988Z,18.52
2019-01-09T01:16:11.810Z,18.51
2019-01-09T01:17:20.924Z,18.58
2019-01-09T01:18:30.047Z,18.52
2019-01-09T01:19:39.215Z,18.58
2019-01-09T01:20:48.033Z,18.52
2019-01-09T01:21:57.109Z,18.47
2019-01-09T01:23:06.193Z,18.52
2019-01-09T01:24:15.003Z,18.57
2019-01-09T01:25:24.000Z,18.6
2019-01-09T01:26:33.083Z,18.52
2019-01-09T01:27:42.188Z,18.48
2019-01-09T01:28:51.278Z,18.41
2019-01-09T01:30:00.179Z,18.52
2019-01-09T01:31:09.256Z,18.52
2019-01-09T01:32:18.068Z,18.45
2019-01-09T01:33:27.431Z,18.54
2019-01-09T01:34:36.500Z,18.48
2019-01-09T01:35:54.432Z,18.44
2019-01-09T01:37:03.888Z,18.54
2019-01-09T01:38:13.222Z,18.52
2019-01-09T01:39:22.598Z,18.5
2019-01-09T01:40:31.971Z,18.5
2019-01-09T01:41:40.786Z,18.52
2019-01-09T01:42:49.983Z,18.52
2019-01-09T01:43:59.074Z,18.42
2019-01-09T01:45:08.436Z,18.5
2019-01-09T01:46:17.779Z,18.52
2019-01-09T01:47:26.860Z,18.37
2019-01-09T01:48:35.766Z,18.48
2019-01-09T01:49:45.136Z,18.41
2019-01-09T01:50:53.968Z,18.48
2019-01-09T01:52:03.323Z,18.54
2019-01-09T01:53:12.649Z,18.54
2019-01-09T01:54:21.727Z,18.42
2019-01-09T01:55:30.574Z,18.52
2019-01-09T01:56:39.896Z,18.45
2019-01-09T01:57:48.719Z,18.41
2019-01-09T01:58:57.549Z,18.52
2019-01-09T02:00:06.462Z,18.41
2019-01-09T02:01:16.084Z,18.42
2019-01-09T02:02:25.192Z,18.44
2019-01-09T02:03:34.375Z,18.47
2019-01-09T02:04:43.447Z,18.45
2019-01-09T02:05:52.627Z,18.52
2019-01-09T02:07:10.406Z,18.44
2019-01-09T02:08:19.246Z,18.44
2019-01-09T02:09:28.077Z,18.44
2019-01-09T02:10:37.441Z,18.45
2019-01-09T02:11:46.584Z,18.47
2019-01-09T02:12:55.412Z,18.48
2019-01-09T02:14:05.020Z,18.52
2019-01-09T02:15:14.089Z,18.48
2019-01-09T02:16:22.914Z,18.47
2019-01-09T02:17:31.830Z,18.51
2019-01-09T02:18:40.932Z,18.5
2019-01-09T02:19:50.327Z,18.45
2019-01-09T02:20:59.422Z,18.5
2019-01-09T02:22:08.235Z,18.51
2019-01-09T02:23:17.057Z,18.51
2019-01-09T02:24:25.891Z,18.45
2019-01-09T02:25:34.982Z,18.45
2019-01-09T02:26:43.812Z,18.44
2019-01-09T02:27:52.639Z,18.45
2019-01-09T02:29:01.525Z,18.37
2019-01-09T02:30:10.369Z,18.44
2019-01-09T02:31:19.191Z,18.44
2019-01-09T02:32:28.278Z,18.44
2019-01-09T02:33:37.389Z,18.45
2019-01-09T02:34:46.469Z,18.37
2019-01-09T02:35:55.545Z,18.45
2019-01-09T02:37:04.644Z,18.42
2019-01-09T02:38:13.479Z,18.42
2019-01-09T02:39:22.576Z,18.39
2019-01-09T02:40:31.450Z,18.41
2019-01-09T02:41:40.282Z,18.35
2019-01-09T02:42:49.618Z,18.42
2019-01-09T02:43:59.234Z,18.35
2019-01-09T02:45:08.085Z,18.44
2019-01-09T02:46:17.544Z,18.39
2019-01-09T02:47:26.611Z,18.39
2019-01-09T02:48:35.443Z,18.47
2019-01-09T02:49:44.813Z,18.35
2019-01-09T02:50:53.897Z,18.39
2019-01-09T02:52:03.043Z,18.41
2019-01-09T02:53:12.188Z,18.39
2019-01-09T02:54:21.267Z,18.35
2019-01-09T02:55:30.088Z,18.33
2019-01-09T02:56:39.174Z,18.37
2019-01-09T02:57:56.433Z,18.33
2019-01-09T02:59:06.267Z,18.35
2019-01-09T03:00:15.093Z,18.33
2019-01-09T03:01:23.906Z,18.36
2019-01-09T03:02:32.724Z,18.33
2019-01-09T03:03:41.904Z,18.33
2019-01-09T03:04:50.754Z,18.36
2019-01-09T03:05:59.883Z,18.42
2019-01-09T03:07:08.715Z,18.37
2019-01-09T03:08:17.520Z,18.33
2019-01-09T03:09:26.675Z,18.37
2019-01-09T03:10:35.774Z,18.37
2019-01-09T03:11:44.599Z,18.37
2019-01-09T03:12:53.445Z,18.37
2019-01-09T03:14:02.805Z,18.35
2019-01-09T03:15:12.012Z,18.37
2019-01-09T03:16:21.119Z,18.41
2019-01-09T03:17:29.950Z,18.35
2019-01-09T03:18:39.049Z,18.35
2019-01-09T03:19:47.856Z,18.37
2019-01-09T03:20:56.788Z,18.35
2019-01-09T03:22:05.911Z,18.36
2019-01-09T03:23:15.006Z,18.37
2019-01-09T03:24:24.142Z,18.42
2019-01-09T03:25:33.254Z,18.37
2019-01-09T03:26:42.614Z,18.35
2019-01-09T03:27:51.429Z,18.3
2019-01-09T03:29:00.247Z,18.3
2019-01-09T03:30:09.359Z,18.33
2019-01-09T03:31:18.228Z,18.33
2019-01-09T03:32:27.402Z,18.37
2019-01-09T03:33:36.514Z,18.33
2019-01-09T03:34:45.455Z,18.36
2019-01-09T03:35:54.802Z,18.32
2019-01-09T03:37:03.866Z,18.33
2019-01-09T03:38:12.789Z,18.37
2019-01-09T03:39:21.880Z,18.36
2019-01-09T03:40:30.718Z,18.29
2019-01-09T03:41:39.837Z,18.32
2019-01-09T03:42:48.653Z,18.27
2019-01-09T03:43:57.582Z,18.32
2019-01-09T03:45:06.950Z,18.32
2019-01-09T03:46:16.021Z,18.37
2019-01-09T03:47:25.368Z,18.3
2019-01-09T03:48:34.490Z,18.29
2019-01-09T03:49:43.317Z,18.32
2019-01-09T03:50:52.693Z,18.29
2019-01-09T03:52:02.148Z,18.29
2019-01-09T03:53:11.221Z,18.32
2019-01-09T03:54:20.292Z,18.29
2019-01-09T03:55:29.255Z,18.41
2019-01-09T03:56:38.098Z,18.37
2019-01-09T03:57:47.456Z,18.37
2019-01-09T03:58:57.065Z,18.25
2019-01-09T04:00:06.403Z,18.33
2019-01-09T04:01:15.809Z,18.21
2019-01-09T04:02:24.628Z,18.23
2019-01-09T04:03:33.445Z,18.32
2019-01-09T04:04:42.272Z,18.21
2019-01-09T04:05:51.646Z,18.29
2019-01-09T04:07:00.559Z,18.18
2019-01-09T04:08:09.391Z,18.23
2019-01-09T04:09:18.478Z,18.2
2019-01-09T04:10:27.312Z,18.23
2019-01-09T04:11:36.153Z,18.2
2019-01-09T04:12:45.233Z,18.23
2019-01-09T04:13:54.325Z,18.2
2019-01-09T04:15:03.404Z,18.25
2019-01-09T04:16:12.520Z,18.21
2019-01-09T04:17:21.337Z,18.26
2019-01-09T04:18:30.415Z,18.23
2019-01-09T04:19:39.254Z,18.21
2019-01-09T04:20:48.084Z,18.23
2019-01-09T04:21:56.935Z,18.2
2019-01-09T04:23:06.036Z,18.18
2019-01-09T04:24:15.492Z,18.23
2019-01-09T04:25:24.572Z,18.26
2019-01-09T04:26:33.667Z,18.27
2019-01-09T04:27:42.500Z,18.25
2019-01-09T04:28:51.598Z,18.23
2019-01-09T04:30:00.681Z,18.21
2019-01-09T04:31:09.510Z,18.25
2019-01-09T04:32:18.857Z,18.25
2019-01-09T04:33:27.944Z,18.21
2019-01-09T04:34:37.327Z,18.23
2019-01-09T04:35:46.248Z,18.25
2019-01-09T04:36:56.304Z,18.17
2019-01-09T04:38:05.633Z,18.14
2019-01-09T04:39:14.460Z,18.2
2019-01-09T04:40:23.813Z,18.14
2019-01-09T04:41:33.110Z,18.17
2019-01-09T04:42:42.226Z,18.12
2019-01-09T04:43:51.055Z,18.18
2019-01-09T04:44:59.882Z,18.17
2019-01-09T04:46:08.994Z,18.18
2019-01-09T04:47:18.194Z,18.15
2019-01-09T04:48:27.034Z,18.18
2019-01-09T04:49:36.392Z,18.18
2019-01-09T04:50:45.488Z,18.2
2019-01-09T04:51:54.601Z,18.17
2019-01-09T04:53:03.852Z,18.23
2019-01-09T04:54:12.965Z,18.14
2019-01-09T04:55:22.101Z,18.21
2019-01-09T04:56:31.493Z,18.15
2019-01-09T04:57:40.312Z,18.18
2019-01-09T04:58:49.337Z,18.17
2019-01-09T04:59:58.705Z,18.14
2019-01-09T05:01:07.799Z,18.15
2019-01-09T05:02:17.142Z,18.12
2019-01-09T05:03:26.479Z,18.15
2019-01-09T05:04:35.941Z,18.2
2019-01-09T05:05:45.279Z,18.08
2019-01-09T05:07:02.674Z,18.03
2019-01-09T05:08:11.517Z,18.18
2019-01-09T05:09:20.446Z,18.12
2019-01-09T05:10:29.381Z,18.08
2019-01-09T05:11:38.484Z,18.1
2019-01-09T05:12:47.582Z,18.1
2019-01-09T05:13:56.915Z,18.11
2019-01-09T05:15:05.993Z,18.11
2019-01-09T05:16:14.927Z,18.14
2019-01-09T05:17:24.279Z,18.1
2019-01-09T05:18:33.392Z,18.15
2019-01-09T05:19:42.223Z,18.15
2019-01-09T05:20:51.574Z,18.08
2019-01-09T05:22:00.673Z,18.03
2019-01-09T05:23:09.758Z,18.18
2019-01-09T05:24:19.092Z,18.03
2019-01-09T05:25:28.448Z,18.07
2019-01-09T05:26:37.557Z,18.02
2019-01-09T05:27:46.740Z,18.07
2019-01-09T05:28:56.094Z,18.08
2019-01-09T05:30:05.463Z,18.05
2019-01-09T05:31:14.680Z,18.11
2019-01-09T05:32:23.783Z,18.1
2019-01-09T05:33:32.969Z,18.07
2019-01-09T05:34:41.790Z,18.11
2019-01-09T05:35:50.906Z,18.08
2019-01-09T05:37:09.306Z,18.07
2019-01-09T05:38:19.073Z,18.08
2019-01-09T05:39:28.748Z,18.05
2019-01-09T05:40:46.235Z,18.11
2019-01-09T05:41:55.071Z,18.11
2019-01-09T05:43:04.164Z,18.03
2019-01-09T05:44:13.540Z,18.05
2019-01-09T05:45:22.731Z,18.07
2019-01-09T05:46:31.577Z,18.12
2019-01-09T05:47:40.661Z,18.07
2019-01-09T05:48:49.477Z,18.08
2019-01-09T05:49:58.295Z,18.08
2019-01-09T05:51:07.263Z,18.1
2019-01-09T05:52:16.384Z,18.08
2019-01-09T05:53:25.716Z,18.07
2019-01-09T05:54:34.808Z,18.08
2019-01-09T05:55:43.623Z,18.11
2019-01-09T05:56:52.724Z,18.07
2019-01-09T05:58:01.533Z,18.08
2019-01-09T05:59:11.118Z,18.02
2019-01-09T06:00:20.239Z,18.05
2019-01-09T06:01:29.346Z,18.03
2019-01-09T06:02:38.429Z,18.12
2019-01-09T06:03:47.267Z,18.02
2019-01-09T06:04:56.113Z,17.99
2019-01-09T06:06:05.216Z,17.95
2019-01-09T06:07:22.682Z,17.99
2019-01-09T06:08:31.895Z,17.87
2019-01-09T06:09:42.440Z,17.9
2019-01-09T06:10:51.557Z,17.99
2019-01-09T06:12:00.622Z,18
2019-01-09T06:13:09.444Z,17.97
2019-01-09T06:14:18.366Z,17.95
2019-01-09T06:15:27.194Z,18.03
2019-01-09T06:16:36.273Z,17.96
2019-01-09T06:17:45.388Z,18
2019-01-09T06:18:54.746Z,18.11
2019-01-09T06:20:03.586Z,18.05
2019-01-09T06:21:12.715Z,18.03
2019-01-09T06:22:21.779Z,18.03
2019-01-09T06:23:30.857Z,18.07
2019-01-09T06:24:39.938Z,18.03
2019-01-09T06:25:48.806Z,18
2019-01-09T06:26:57.634Z,17.9
2019-01-09T06:28:06.988Z,17.87
2019-01-09T06:29:15.798Z,17.89
2019-01-09T06:30:24.865Z,17.92
2019-01-09T06:31:34.066Z,17.96
2019-01-09T06:32:42.944Z,18.02
2019-01-09T06:33:52.556Z,17.97
2019-01-09T06:35:01.396Z,17.97
2019-01-09T06:36:10.470Z,18.03
2019-01-09T06:37:27.055Z,18.05
2019-01-09T06:38:36.163Z,18
2019-01-09T06:39:45.516Z,18.07
2019-01-09T06:40:54.627Z,18.08
2019-01-09T06:42:03.452Z,18.03
2019-01-09T06:43:13.135Z,18.05
2019-01-09T06:44:22.792Z,18.07
2019-01-09T06:45:32.234Z,18.07
2019-01-09T06:46:41.073Z,18.07
2019-01-09T06:47:50.084Z,18.07
2019-01-09T06:48:59.021Z,18.03
2019-01-09T06:50:09.661Z,18.05
2019-01-09T06:51:18.747Z,18.07
2019-01-09T06:52:27.567Z,18.12
2019-01-09T06:53:36.935Z,18.08
2019-01-09T06:54:46.352Z,18.11
2019-01-09T06:55:55.624Z,18.14
2019-01-09T06:57:04.543Z,18.08
2019-01-09T06:58:13.888Z,18.11
2019-01-09T06:59:25.065Z,18.08
2019-01-09T07:00:34.492Z,18.08
2019-01-09T07:01:43.577Z,18.08
2019-01-09T07:02:52.405Z,18.03
2019-01-09T07:04:01.474Z,18.08
2019-01-09T07:05:10.300Z,18.1
2019-01-09T07:06:19.736Z,18.02
2019-01-09T07:07:35.918Z,18.12
2019-01-09T07:08:45.196Z,18.11
2019-01-09T07:09:54.036Z,18.1
2019-01-09T07:11:03.395Z,18.03
2019-01-09T07:12:12.487Z,18.07
2019-01-09T07:13:21.685Z,18.05
2019-01-09T07:14:30.490Z,18.07
2019-01-09T07:15:39.580Z,18.07
2019-01-09T07:16:48.427Z,18.07
2019-01-09T07:17:57.890Z,18.11
2019-01-09T07:19:06.707Z,18.08
2019-01-09T07:20:15.788Z,18.05
2019-01-09T07:21:24.876Z,18.05
2019-01-09T07:22:33.695Z,18.08
2019-01-09T07:23:42.600Z,18.12
2019-01-09T07:24:51.683Z,18.05
2019-01-09T07:26:00.533Z,18.1
2019-01-09T07:27:10.127Z,18.05
2019-01-09T07:28:18.936Z,18.11
2019-01-09T07:29:27.857Z,18.18
2019-01-09T07:30:37.183Z,18.1
2019-01-09T07:31:46.010Z,18.05
2019-01-09T07:32:55.091Z,18.05
2019-01-09T07:34:04.157Z,18.08
2019-01-09T07:35:13.095Z,18.07
2019-01-09T07:36:22.432Z,18.05
2019-01-09T07:37:31.765Z,18.05
2019-01-09T07:38:49.720Z,18.08
2019-01-09T07:39:58.819Z,18.11
2019-01-09T07:41:07.918Z,18.12
2019-01-09T07:42:17.283Z,18.08
2019-01-09T07:43:26.095Z,18.1
2019-01-09T07:44:34.935Z,18.1
2019-01-09T07:45:44.027Z,18.05
2019-01-09T07:46:53.204Z,18.12
2019-01-09T07:48:02.031Z,18.05
2019-01-09T07:49:11.215Z,18.07
2019-01-09T07:50:20.283Z,18.07
2019-01-09T07:51:29.358Z,18.1
2019-01-09T07:52:38.540Z,18.1
2019-01-09T07:53:48.150Z,18.08
2019-01-09T07:54:56.977Z,18.12
2019-01-09T07:56:06.079Z,18.11
2019-01-09T07:57:14.918Z,18.12
2019-01-09T07:58:24.902Z,18.1
2019-01-09T07:59:34.036Z,18.1
2019-01-09T08:00:42.855Z,18.07
2019-01-09T08:01:51.923Z,18.07
2019-01-09T08:03:00.770Z,18.08
2019-01-09T08:04:10.227Z,18.1
2019-01-09T08:05:19.303Z,18.1
2019-01-09T08:06:28.385Z,18.05
2019-01-09T08:07:37.491Z,18.1
2019-01-09T08:08:46.302Z,18.12
2019-01-09T08:09:55.415Z,18.12
2019-01-09T08:11:04.771Z,18.07
2019-01-09T08:12:13.602Z,18.07
2019-01-09T08:13:22.416Z,18.07
2019-01-09T08:14:31.498Z,18.08
2019-01-09T08:15:40.332Z,18.12
2019-01-09T08:16:49.413Z,18.12
2019-01-09T08:17:58.504Z,18.1
2019-01-09T08:19:07.625Z,18.05
2019-01-09T08:20:16.448Z,18.08
2019-01-09T08:21:25.822Z,18.08
2019-01-09T08:22:34.913Z,18.12
2019-01-09T08:23:43.789Z,18.08
2019-01-09T08:24:52.847Z,18.07
2019-01-09T08:26:01.658Z,18.12
2019-01-09T08:27:10.518Z,18.08
2019-01-09T08:28:19.862Z,18.11
2019-01-09T08:29:28.953Z,18.05
2019-01-09T08:30:37.749Z,18.07
2019-01-09T08:31:46.568Z,18.11
2019-01-09T08:32:55.900Z,18.08
2019-01-09T08:34:04.734Z,18.1
2019-01-09T08:35:14.094Z,18.08
2019-01-09T08:36:22.917Z,18.12
2019-01-09T08:37:32.002Z,18.1
2019-01-09T08:38:41.075Z,18.08
2019-01-09T08:39:50.451Z,18.08
2019-01-09T08:40:59.270Z,18.07
2019-01-09T08:42:08.958Z,18.11
2019-01-09T08:43:18.050Z,18.1
2019-01-09T08:44:26.929Z,18.07
2019-01-09T08:45:36.270Z,18.08
2019-01-09T08:46:47.000Z,18.02
2019-01-09T08:47:56.103Z,18.1
2019-01-09T08:49:05.180Z,18.05
2019-01-09T08:50:14.299Z,18.07
2019-01-09T08:51:23.670Z,18.08
2019-01-09T08:52:35.078Z,18.08
2019-01-09T08:53:44.712Z,18.05
2019-01-09T08:54:53.538Z,18.03
2019-01-09T08:56:02.667Z,18.1
2019-01-09T08:57:12.009Z,18.11
2019-01-09T08:58:21.100Z,18.07
2019-01-09T08:59:30.011Z,18.08
2019-01-09T09:00:38.850Z,18.1
2019-01-09T09:01:47.956Z,18.11
2019-01-09T09:02:57.033Z,18.07
2019-01-09T09:04:06.377Z,18.15
2019-01-09T09:05:15.469Z,18.12
2019-01-09T09:06:24.556Z,18.1
2019-01-09T09:07:33.749Z,18.03
2019-01-09T09:08:44.188Z,18.08
2019-01-09T09:09:53.553Z,18.08
2019-01-09T09:11:02.912Z,18.1
2019-01-09T09:12:11.771Z,18.08
2019-01-09T09:13:20.968Z,18.11
2019-01-09T09:14:29.785Z,18.11
2019-01-09T09:15:38.873Z,18.1
2019-01-09T09:16:47.961Z,18.17
2019-01-09T09:17:56.791Z,18.07
2019-01-09T09:19:05.604Z,18.07
2019-01-09T09:20:14.419Z,18.11
2019-01-09T09:21:23.238Z,18.08
2019-01-09T09:22:32.346Z,18.05
2019-01-09T09:23:41.157Z,18.03
2019-01-09T09:24:49.967Z,18.11
2019-01-09T09:25:58.807Z,18.07
2019-01-09T09:27:07.870Z,18.14
2019-01-09T09:28:17.047Z,17.97
2019-01-09T09:29:26.394Z,18.08
2019-01-09T09:30:37.080Z,18.05
2019-01-09T09:31:46.168Z,18.02
2019-01-09T09:32:54.986Z,18.07
2019-01-09T09:34:04.097Z,18.08
2019-01-09T09:35:13.194Z,18.07
2019-01-09T09:36:22.292Z,18.07
2019-01-09T09:37:31.391Z,18.07
2019-01-09T09:38:40.233Z,18.03
2019-01-09T09:39:49.080Z,18.1
2019-01-09T09:40:57.998Z,18.08
2019-01-09T09:42:07.390Z,18.05
2019-01-09T09:43:16.474Z,18.05
2019-01-09T09:44:25.321Z,18.03
2019-01-09T09:45:34.417Z,18.03
2019-01-09T09:46:43.233Z,18.03
2019-01-09T09:47:52.696Z,18.03
2019-01-09T09:49:01.547Z,18.05
2019-01-09T09:50:10.619Z,18.05
2019-01-09T09:51:20.334Z,18.05
2019-01-09T09:52:29.149Z,18
2019-01-09T09:53:38.321Z,18.03
2019-01-09T09:54:47.411Z,18.02
2019-01-09T09:55:56.783Z,18
2019-01-09T09:57:05.601Z,18
2019-01-09T09:58:14.684Z,18.08
2019-01-09T09:59:23.809Z,18.02
2019-01-09T10:00:32.635Z,18.03
2019-01-09T10:01:41.440Z,18.02
2019-01-09T10:02:51.083Z,18.1
2019-01-09T10:03:59.887Z,18.05
2019-01-09T10:05:08.800Z,18
2019-01-09T10:06:18.165Z,18.02
2019-01-09T10:07:26.969Z,18.05
2019-01-09T10:08:35.874Z,18
2019-01-09T10:09:44.975Z,18.05
2019-01-09T10:10:54.166Z,18.02
2019-01-09T10:12:02.999Z,18.07
2019-01-09T10:13:11.797Z,18.05
2019-01-09T10:14:20.611Z,18.03
2019-01-09T10:15:29.689Z,18.02
2019-01-09T10:16:38.875Z,18.03
2019-01-09T10:17:47.706Z,18.03
2019-01-09T10:18:56.829Z,18.14
2019-01-09T10:20:06.165Z,18.03
2019-01-09T10:21:15.346Z,18.05
2019-01-09T10:22:24.701Z,18.07
2019-01-09T10:23:33.619Z,18.05
2019-01-09T10:24:42.960Z,18.07
2019-01-09T10:25:52.052Z,18.02
2019-01-09T10:27:01.521Z,18.03
2019-01-09T10:28:10.401Z,18.05
2019-01-09T10:29:19.215Z,18.07
2019-01-09T10:30:28.039Z,18.11
2019-01-09T10:31:37.137Z,18.1
2019-01-09T10:32:46.230Z,18.1
2019-01-09T10:33:55.056Z,18.08
2019-01-09T10:35:04.430Z,18.05
2019-01-09T10:36:13.240Z,18.02
2019-01-09T10:37:22.578Z,18.1
2019-01-09T10:38:40.402Z,18.08
2019-01-09T10:39:51.608Z,18.07
2019-01-09T10:41:00.702Z,18.15
2019-01-09T10:42:10.498Z,18.2
2019-01-09T10:43:19.595Z,18.21
2019-01-09T10:44:28.694Z,18.2
2019-01-09T10:45:39.271Z,18.17
2019-01-09T10:46:48.350Z,18.21
2019-01-09T10:47:57.708Z,18.33
2019-01-09T10:49:07.050Z,18.32
2019-01-09T10:50:16.405Z,18.36
2019-01-09T10:51:25.745Z,18.35
2019-01-09T10:52:35.139Z,18.37
2019-01-09T10:53:43.967Z,18.39
2019-01-09T10:54:53.072Z,18.37
2019-01-09T10:56:02.748Z,18.47
2019-01-09T10:57:11.899Z,18.45
2019-01-09T10:58:20.970Z,18.52
2019-01-09T10:59:30.081Z,18.52
2019-01-09T11:00:39.435Z,18.52
2019-01-09T11:01:48.275Z,18.52
2019-01-09T11:02:57.456Z,18.57
2019-01-09T11:04:06.808Z,18.58
2019-01-09T11:05:15.661Z,18.58
2019-01-09T11:06:25.107Z,18.65
2019-01-09T11:07:34.184Z,18.69
2019-01-09T11:08:51.739Z,18.69
2019-01-09T11:10:00.865Z,18.76
2019-01-09T11:11:09.687Z,18.87
2019-01-09T11:12:19.030Z,18.84
2019-01-09T11:13:28.106Z,18.91
2019-01-09T11:14:36.980Z,18.91
2019-01-09T11:15:46.074Z,18.92
2019-01-09T11:16:55.171Z,18.91
2019-01-09T11:18:04.270Z,19
2019-01-09T11:19:13.099Z,19
2019-01-09T11:20:21.981Z,19.06
2019-01-09T11:21:30.792Z,18.99
2019-01-09T11:22:40.127Z,19.06
2019-01-09T11:23:49.221Z,19.04
2019-01-09T11:24:58.033Z,19.07
2019-01-09T11:26:08.571Z,19.21
2019-01-09T11:27:17.648Z,19.19
2019-01-09T11:28:26.455Z,19.16
2019-01-09T11:29:35.291Z,19.11
2019-01-09T11:30:44.179Z,19.14
2019-01-09T11:31:53.014Z,19.19
2019-01-09T11:33:02.365Z,19.31
2019-01-09T11:34:11.443Z,19.31
2019-01-09T11:35:20.264Z,19.33
2019-01-09T11:36:29.365Z,19.26
2019-01-09T11:37:38.203Z,19.36
2019-01-09T11:38:55.419Z,19.31
2019-01-09T11:40:04.820Z,19.25
2019-01-09T11:41:13.666Z,19.36
2019-01-09T11:42:22.783Z,19.41
2019-01-09T11:43:31.926Z,19.48
2019-01-09T11:44:40.733Z,19.51
2019-01-09T11:45:50.353Z,19.59
2019-01-09T11:46:59.249Z,19.66
2019-01-09T11:48:08.344Z,19.71
2019-01-09T11:49:19.310Z,19.87
2019-01-09T11:50:28.762Z,20.02
2019-01-09T11:51:37.969Z,19.95
2019-01-09T11:52:47.321Z,20.06
2019-01-09T11:53:56.663Z,20.28
2019-01-09T11:55:05.474Z,20.36
2019-01-09T11:56:14.279Z,20.47
2019-01-09T11:57:23.133Z,20.58
2019-01-09T11:58:32.734Z,20.54
2019-01-09T11:59:41.557Z,20.43
2019-01-09T12:00:50.446Z,20.47
2019-01-09T12:01:59.542Z,20.39
2019-01-09T12:03:08.939Z,20.41
2019-01-09T12:04:18.052Z,20.42
2019-01-09T12:05:26.866Z,20.29
2019-01-09T12:06:36.013Z,20.36
2019-01-09T12:07:44.853Z,20.26
2019-01-09T12:08:53.841Z,20.24
2019-01-09T12:10:11.125Z,20.14
2019-01-09T12:11:19.957Z,19.98
2019-01-09T12:12:29.136Z,20.01
2019-01-09T12:13:37.944Z,19.96
2019-01-09T12:14:46.760Z,19.84
2019-01-09T12:15:55.833Z,19.8
2019-01-09T12:19:12.237Z,19.56
2019-01-09T12:20:21.118Z,19.62
2019-01-09T12:21:29.944Z,19.5
2019-01-09T12:22:38.770Z,19.5
2019-01-09T12:23:48.405Z,19.44
2019-01-09T12:24:57.511Z,19.46
2019-01-09T12:26:06.333Z,19.41
2019-01-09T12:27:15.420Z,19.39
2019-01-09T12:28:24.232Z,19.33
2019-01-09T12:29:33.063Z,19.33
2019-01-09T12:30:41.917Z,19.25
2019-01-09T12:31:50.736Z,19.29
2019-01-09T12:32:59.543Z,19.31
2019-01-09T12:34:08.364Z,19.37
2019-01-09T12:35:17.198Z,19.26
2019-01-09T12:36:26.028Z,19.32
2019-01-09T12:37:35.643Z,19.26
2019-01-09T12:38:44.710Z,19.21
2019-01-09T12:39:55.220Z,19.22
2019-01-09T12:41:04.363Z,19.25
2019-01-09T12:42:13.443Z,19.25
2019-01-09T12:43:22.260Z,19.19
2019-01-09T12:44:31.613Z,19.29
2019-01-09T12:45:40.711Z,19.21
2019-01-09T12:46:49.521Z,19.21
2019-01-09T12:47:58.879Z,19.21
2019-01-09T12:49:08.486Z,19.25
2019-01-09T12:50:18.670Z,19.22
2019-01-09T12:51:28.299Z,19.22
2019-01-09T12:52:37.622Z,19.11
2019-01-09T12:53:46.541Z,19.16
2019-01-09T12:54:55.625Z,19.23
2019-01-09T12:56:04.929Z,19.14
2019-01-09T12:57:14.300Z,19.11
2019-01-09T12:58:23.401Z,19.21
2019-01-09T12:59:32.279Z,19.13
2019-01-09T13:00:41.104Z,19.11
2019-01-09T13:01:50.195Z,19.21
2019-01-09T13:02:59.261Z,19.16
2019-01-09T13:04:10.162Z,19.16
2019-01-09T13:05:19.279Z,19.11
2019-01-09T13:06:28.392Z,19.18
2019-01-09T13:07:37.209Z,19.18
2019-01-09T13:08:46.284Z,19.13
2019-01-09T13:09:55.947Z,19.16
2019-01-09T13:11:04.887Z,19.13
2019-01-09T13:12:13.695Z,19.18
2019-01-09T13:13:23.056Z,19.11
2019-01-09T13:14:31.884Z,19.16
2019-01-09T13:15:41.000Z,19.14
2019-01-09T13:16:52.953Z,19.18
2019-01-09T13:18:01.794Z,19.1
2019-01-09T13:19:12.405Z,19.1
2019-01-09T13:20:21.512Z,19.11
2019-01-09T13:21:30.334Z,19.08
2019-01-09T13:22:39.484Z,18.99
2019-01-09T13:23:48.350Z,19.02
2019-01-09T13:24:59.062Z,19.11
2019-01-09T13:26:08.207Z,19.16
2019-01-09T13:27:17.305Z,19.08
2019-01-09T13:28:26.450Z,19.06
2019-01-09T13:29:35.273Z,18.99
2019-01-09T13:30:44.613Z,19.04
2019-01-09T13:31:53.682Z,19.04
2019-01-09T13:33:02.519Z,19.04
2019-01-09T13:34:11.725Z,19.04
2019-01-09T13:35:21.633Z,19.04
2019-01-09T13:36:30.456Z,18.84
2019-01-09T13:37:39.282Z,18.45
2019-01-09T13:38:48.359Z,18.29
2019-01-09T13:39:57.483Z,18.29
2019-01-09T13:41:06.570Z,18.32
2019-01-09T13:42:15.507Z,18.48
2019-01-09T13:43:24.620Z,18.5
2019-01-09T13:44:33.442Z,18.45
2019-01-09T13:45:42.358Z,18.45
2019-01-09T13:46:51.443Z,18.55
2019-01-09T13:48:00.267Z,18.62
2019-01-09T13:49:09.605Z,18.62
2019-01-09T13:50:18.700Z,18.72
2019-01-09T13:51:28.112Z,18.69
2019-01-09T13:52:37.486Z,18.66
2019-01-09T13:53:46.835Z,18.75
2019-01-09T13:54:55.655Z,18.76
2019-01-09T13:56:04.490Z,18.8
2019-01-09T13:57:13.562Z,18.85
2019-01-09T13:58:22.654Z,18.78
2019-01-09T13:59:31.745Z,18.84
2019-01-09T14:00:40.594Z,18.75
2019-01-09T14:01:49.698Z,18.73
2019-01-09T14:02:59.144Z,18.73
2019-01-09T14:04:07.989Z,18.72
2019-01-09T14:05:16.811Z,18.76
2019-01-09T14:06:25.911Z,18.73
2019-01-09T14:07:34.740Z,18.78
2019-01-09T14:08:43.832Z,18.73
2019-01-09T14:09:52.917Z,18.76
2019-01-09T14:11:02.022Z,18.75
2019-01-09T14:12:10.831Z,18.78
2019-01-09T14:13:19.662Z,18.8
2019-01-09T14:14:28.859Z,18.73
2019-01-09T14:15:37.692Z,18.8
2019-01-09T14:16:47.679Z,18.8
2019-01-09T14:17:57.000Z,18.8
2019-01-09T14:19:06.066Z,18.81
2019-01-09T14:20:15.528Z,18.85
2019-01-09T14:21:24.978Z,18.87
2019-01-09T14:22:37.921Z,18.82
2019-01-09T14:23:46.760Z,18.8
2019-01-09T14:24:55.886Z,18.78
2019-01-09T14:26:04.806Z,18.84
2019-01-09T14:27:13.630Z,18.85
2019-01-09T14:28:22.705Z,18.8
2019-01-09T14:29:31.523Z,18.75
2019-01-09T14:30:40.327Z,18.8
2019-01-09T14:31:49.180Z,18.81
2019-01-09T14:32:58.796Z,18.76
2019-01-09T14:34:07.617Z,18.76
2019-01-09T14:35:16.423Z,18.78
2019-01-09T14:36:25.788Z,18.73
2019-01-09T14:37:35.203Z,18.81
2019-01-09T14:38:44.258Z,18.84
2019-01-09T14:39:53.385Z,18.81
2019-01-09T14:41:02.277Z,18.75
2019-01-09T14:42:11.347Z,18.81
2019-01-09T14:43:20.174Z,18.8
2019-01-09T14:44:29.288Z,18.78
2019-01-09T14:45:38.616Z,18.73
2019-01-09T14:46:48.204Z,18.75
2019-01-09T14:47:57.034Z,18.72
2019-01-09T14:49:06.227Z,18.75
2019-01-09T14:50:15.317Z,18.7
2019-01-09T14:51:24.394Z,18.5
2019-01-09T14:52:33.215Z,18.5
2019-01-09T14:53:42.291Z,18.51
2019-01-09T14:54:51.423Z,18.42
2019-01-09T14:56:00.780Z,18.51
2019-01-09T14:57:09.874Z,18.51
2019-01-09T14:58:18.953Z,18.58